Terminal Aerodrome Forecast
Issued by NWS

Home | Current Version | Previous Version | Text Only | Print | Product List | Glossary On
Versions: 1 2 3 4 5 6 7 8 9 10 11 12 13 14 15 16
721
FTUS44 KCRP 271744
TAFALI
TAF
KALI 271744Z 2718/2818 17010KT P6SM BKN018
      TEMPO 2719/2720 SCT020 BKN050
     FM272000 16012KT P6SM SCT030 SCT050
     FM280400 14011KT P6SM BKN015
     FM280800 16008KT 5SM BR OVC008
      TEMPO 2810/2813 1SM BR OVC004
     FM281600 18016G24KT P6SM BKN015=

USA.gov is the U.S. government's official web portal to all federal, state and local government web resources and services.